M I D A S
Marine Information and Data Acquisition System
Tripno 1847 of the Zeeleeuw from 2010-03-23 08:42:18 to 2010-03-23 15:07:02
Back to CruiseResearch ActivitiesStationsMapUnderway DataData graphs

EquipmentUnitsComments
TimeDGPSUTC
LatitudeDGPSDM.mWGS84
LongitudeDGPSDM.mWGS84
SpeedMeteo Stationm/sRelative wind speed
DirectionMeteo StationdegRelative wind direction
TemperatureMeteo Stationdeg CelciusAir temperature
PressureMeteo StationPaAtmospheric pressure
HumidityMeteo Station%Relative humidity
Missing or incorrect values are displayed as -999
Metereological data collected by the RV Zeeleeuw from 2010-03-23 08:38:44 to 2010-03-23 15:08:08
Time Latitude Longitude Speed Direction Temperature Pressure Humidity
2010-03-23 08:39 51°13.674 2°55.905 -999 23 6.6 102040 45
2010-03-23 08:40 51°13.69 2°55.814 -999 23 6.7 102040 45
2010-03-23 08:41 51°13.703 2°55.737 -999 5 6.7 102040 44
2010-03-23 08:42 51°13.709 2°55.723 -999 345 6.7 102040 45
2010-03-23 08:43 51°13.728 2°55.725 -999 350 6.5 102040 45
2010-03-23 08:44 51°13.775 2°55.687 0.7 344 6.5 102030 45
2010-03-23 08:45 51°13.877 2°55.603 2.9 339 6.5 102040 43
2010-03-23 08:46 51°14.006 2°55.506 2.7 341 6.5 102040 46
2010-03-23 08:47 51°14.147 2°55.403 3.1 337 6.5 102040 46
2010-03-23 08:48 51°14.29 2°55.266 3.3 338 6.5 102040 46
2010-03-23 08:49 51°14.437 2°55.11 3.7 338 6.6 102030 43
2010-03-23 08:50 51°14.589 2°54.939 3.2 333 6.6 102030 44
2010-03-23 08:51 51°14.73 2°54.71 3.3 329 6.5 102030 44
2010-03-23 08:52 51°14.731 2°54.383 4.6 321 6.5 102030 44
2010-03-23 08:53 51°14.58 2°54.157 5.9 323 6.5 102030 43
2010-03-23 08:54 51°14.408 2°53.904 5.7 324 6.5 102030 44
2010-03-23 08:55 51°14.25 2°53.616 5.8 327 6.5 102030 44
2010-03-23 08:56 51°14.107 2°53.306 5.6 329 6.4 102030 45
2010-03-23 08:57 51°13.949 2°53.014 6.3 330 6.4 102030 46
2010-03-23 08:58 51°13.794 2°52.721 6.2 329 6.4 102030 43
2010-03-23 08:59 51°13.676 2°52.386 5.7 329 6.4 102030 44
2010-03-23 09:00 51°13.559 2°52.049 5.9 328 6.5 102030 43
2010-03-23 09:01 51°13.437 2°51.718 5.9 327 6.5 102030 44
2010-03-23 09:02 51°13.314 2°51.387 5.2 329 6.5 102030 45
2010-03-23 09:03 51°13.199 2°51.08 3.7 328 6.5 102030 45
2010-03-23 09:04 51°13.101 2°50.817 2.9 327 6.5 102030 43
2010-03-23 09:05 51°13.003 2°50.556 3 327 6.5 102030 43
2010-03-23 09:06 51°12.903 2°50.289 3.6 328 6.5 102030 46
2010-03-23 09:07 51°12.803 2°50.017 3.5 328 6.5 102030 44
2010-03-23 09:08 51°12.7 2°49.744 3.8 331 6.5 102030 43
2010-03-23 09:09 51°12.597 2°49.472 2.9 329 6.5 102030 43
2010-03-23 09:10 51°12.498 2°49.195 3.7 328 6.5 102030 46
2010-03-23 09:11 51°12.407 2°48.911 3.1 330 6.5 102030 43
2010-03-23 09:12 51°12.33 2°48.615 3.4 331 6.5 102020 45
2010-03-23 09:13 51°12.255 2°48.318 4 333 6.6 102020 45
2010-03-23 09:14 51°12.18 2°48.021 3.9 334 6.5 102020 43
2010-03-23 09:15 51°12.105 2°47.723 3.5 335 6.5 102020 46
2010-03-23 09:16 51°12.028 2°47.421 3.4 334 6.6 102020 43
2010-03-23 09:17 51°11.951 2°47.115 3.1 335 6.6 102020 46
2010-03-23 09:18 51°11.874 2°46.808 2.4 335 6.6 102020 44
2010-03-23 09:19 51°11.795 2°46.501 1.2 336 6.6 102020 43
2010-03-23 09:20 51°11.717 2°46.194 2.6 333 6.6 102020 43
2010-03-23 09:21 51°11.64 2°45.888 3 332 6.6 102020 44
2010-03-23 09:22 51°11.565 2°45.586 2.7 331 6.6 102020 46
2010-03-23 09:23 51°11.486 2°45.279 2.5 333 6.6 102020 43
2010-03-23 09:24 51°11.407 2°44.966 2.8 330 6.5 102020 43
2010-03-23 09:25 51°11.332 2°44.663 3 328 6.5 102020 46
2010-03-23 09:26 51°11.254 2°44.351 2.7 330 6.6 102010 46
2010-03-23 09:27 51°11.179 2°44.049 3.6 330 6.6 102010 45
2010-03-23 09:28 51°11.103 2°43.74 3.1 328 6.6 102010 44
2010-03-23 09:29 51°11.026 2°43.425 2.6 329 6.6 102010 44
2010-03-23 09:30 51°10.952 2°43.119 3.4 328 6.6 102010 45
2010-03-23 09:31 51°10.875 2°42.805 4.7 319 6.6 102010 43
2010-03-23 09:32 51°10.797 2°42.479 5.5 320 6.7 102000 46
2010-03-23 09:33 51°10.719 2°42.153 5.8 316 6.8 102000 44
2010-03-23 09:34 51°10.64 2°41.818 5.8 317 6.8 102000 45
2010-03-23 09:35 51°10.554 2°41.486 7.2 316 6.9 102000 43
2010-03-23 09:36 51°10.468 2°41.158 7 317 6.9 102000 44
2010-03-23 09:37 51°10.381 2°40.826 7 319 6.9 102000 46
2010-03-23 09:38 51°10.295 2°40.494 8.3 317 7 101990 44
2010-03-23 09:39 51°10.21 2°40.156 6 315 7 101990 44
2010-03-23 09:40 51°10.127 2°39.828 5.3 18 7 102000 46
2010-03-23 09:41 51°10.041 2°39.488 5.3 318 7.1 102000 46
2010-03-23 09:42 51°9.959 2°39.157 4.8 316 7.1 102000 44
2010-03-23 09:43 51°9.874 2°38.82 5.4 322 7.2 102000 43
2010-03-23 09:44 51°9.789 2°38.475 3.3 320 7.2 101990 46
2010-03-23 09:45 51°9.708 2°38.141 5 319 7.3 101990 47
2010-03-23 09:46 51°9.624 2°37.8 4.7 321 7.3 101990 44
2010-03-23 09:47 51°9.541 2°37.458 4.2 320 7.4 101990 44
2010-03-23 09:48 51°9.454 2°37.11 3.4 320 7.4 101990 47
2010-03-23 09:49 51°9.371 2°36.772 3.9 319 7.4 101990 46
2010-03-23 09:50 51°9.283 2°36.425 3.3 318 7.4 101990 44
2010-03-23 09:51 51°9.197 2°36.082 3.3 318 7.5 101990 46
2010-03-23 09:52 51°9.112 2°35.744 2.8 322 7.5 101990 44
2010-03-23 09:53 51°9.024 2°35.393 3.7 321 7.5 101980 47
2010-03-23 09:54 51°8.936 2°35.047 1.9 321 7.6 101980 47
2010-03-23 09:55 51°8.822 2°34.724 4.9 317 7.6 101980 47
2010-03-23 09:56 51°8.682 2°34.436 5.1 319 7.6 101980 45
2010-03-23 09:57 51°8.528 2°34.158 4.9 317 7.6 101990 47
2010-03-23 09:58 51°8.377 2°33.911 3.6 317 7.6 101990 46
2010-03-23 09:59 51°8.259 2°33.711 2.5 31 7.6 101990 46
2010-03-23 10:00 51°8.149 2°33.528 1.7 33 7.6 101990 45
2010-03-23 10:01 51°8.045 2°33.352 0.9 21 7.6 101990 46
2010-03-23 10:02 51°7.973 2°33.245 0.1 257 7.6 101990 46
2010-03-23 10:03 51°7.955 2°33.198 -999 23 7.7 101990 46
2010-03-23 10:04 51°7.943 2°33.162 -999 35 7.7 102000 46
2010-03-23 10:05 51°7.932 2°33.135 -999 34 7.7 102000 46
2010-03-23 10:06 51°7.922 2°33.108 -999 34 7.6 101990 46
2010-03-23 10:07 51°7.912 2°33.082 -999 23 7.6 101990 45
2010-03-23 10:08 51°7.902 2°33.056 -999 23 7.6 101990 46
2010-03-23 10:09 51°7.892 2°33.03 -999 35 7.7 101990 46
2010-03-23 10:10 51°7.882 2°33.003 -999 35 7.8 101990 46
2010-03-23 10:11 51°7.873 2°32.977 -999 23 7.8 101990 46
2010-03-23 10:12 51°7.863 2°32.95 -999 35 7.8 101990 46
2010-03-23 10:13 51°7.853 2°32.924 -999 23 7.9 101990 46
2010-03-23 10:14 51°7.844 2°32.898 -999 35 7.9 101980 46
2010-03-23 10:15 51°7.834 2°32.87 -999 34 8 101990 45
2010-03-23 10:16 51°7.824 2°32.844 -999 23 8.1 101980 46
2010-03-23 10:17 51°7.814 2°32.816 -999 35 8.4 101980 46
2010-03-23 10:18 51°7.803 2°32.791 -999 35 8.4 101980 46
2010-03-23 10:19 51°7.792 2°32.765 -999 35 8.3 101980 46
2010-03-23 10:20 51°7.781 2°32.739 -999 35 8.2 101970 46
2010-03-23 10:21 51°7.77 2°32.714 -999 23 8.1 101970 46
2010-03-23 10:22 51°7.758 2°32.689 -999 23 8 101970 46
2010-03-23 10:23 51°7.746 2°32.664 -999 35 8 101970 45
2010-03-23 10:24 51°7.735 2°32.64 -999 44 7.9 101970 46
2010-03-23 10:25 51°7.724 2°32.616 -999 35 7.9 101970 46
2010-03-23 10:26 51°7.713 2°32.592 -999 43 7.9 101970 46
2010-03-23 10:27 51°7.701 2°32.569 -999 35 8 101960 46
2010-03-23 10:28 51°7.69 2°32.546 -999 40 8 101960 46
2010-03-23 10:29 51°7.678 2°32.523 -999 36 8 101960 46
2010-03-23 10:30 51°7.666 2°32.501 -999 36 8 101960 46
2010-03-23 10:31 51°7.654 2°32.478 -999 29 8 101960 45
2010-03-23 10:32 51°7.642 2°32.456 -999 27 8 101960 46
2010-03-23 10:33 51°7.629 2°32.434 -999 29 8 101970 46
2010-03-23 10:34 51°7.616 2°32.412 -999 27 8 101970 46
2010-03-23 10:35 51°7.602 2°32.391 -999 31 8 101970 46
2010-03-23 10:36 51°7.597 2°32.365 0.1 9 8 101970 46
2010-03-23 10:37 51°7.623 2°32.36 2.7 338 7.9 101970 45
2010-03-23 10:38 51°7.687 2°32.449 5.1 337 7.9 101960 45
2010-03-23 10:39 51°7.766 2°32.606 5.7 333 8 101960 46
2010-03-23 10:40 51°7.848 2°32.79 5.5 334 8.1 101950 44
2010-03-23 10:41 51°7.914 2°32.983 4.5 336 8.2 101950 44
2010-03-23 10:42 51°7.953 2°33.104 1.5 336 8.2 101960 45
2010-03-23 10:43 51°7.958 2°33.179 0.7 338 8.4 101960 45
2010-03-23 10:44 51°7.967 2°33.219 -999 344 8.5 101960 45
2010-03-23 10:45 51°7.969 2°33.234 -999 344 8.6 101960 45
2010-03-23 10:46 51°7.963 2°33.239 -999 340 8.7 101950 45
2010-03-23 10:47 51°7.953 2°33.238 -999 333 8.8 101950 44
2010-03-23 10:48 51°7.943 2°33.234 -999 330 8.9 101950 45
2010-03-23 10:49 51°7.932 2°33.225 -999 328 9 101940 45
2010-03-23 10:50 51°7.92 2°33.214 -999 327 9.1 101940 45
2010-03-23 10:51 51°7.907 2°33.203 -999 327 9.2 101940 44
2010-03-23 10:52 51°7.916 2°33.234 0.8 341 9.2 101940 44
2010-03-23 10:53 51°8.011 2°33.315 5.7 336 9.2 101940 45
2010-03-23 10:54 51°8.151 2°33.36 5.5 342 9.2 101930 43
2010-03-23 10:55 51°8.318 2°33.289 7 342 9 101930 42
2010-03-23 10:56 51°8.479 2°33.179 6.7 346 8.6 101930 42
2010-03-23 10:57 51°8.64 2°33.052 6 346 8 101920 43
2010-03-23 10:58 51°8.792 2°32.948 6.4 346 7.6 101920 43
2010-03-23 10:59 51°8.916 2°32.942 5.3 342 7.3 101920 44
2010-03-23 11:00 51°8.944 2°33.027 5.7 329 7.2 101920 46
2010-03-23 11:01 51°8.951 2°33.106 4.1 326 7.2 101920 46
2010-03-23 11:02 51°8.94 2°33.118 2.6 28 7.2 101920 46
2010-03-23 11:03 51°8.927 2°33.092 2.6 19 7.3 101920 43
2010-03-23 11:04 51°8.912 2°33.062 2.9 253 7.3 101920 44
2010-03-23 11:05 51°8.896 2°33.03 3.7 259 7.4 101920 43
2010-03-23 11:06 51°8.878 2°32.996 2.5 261 7.4 101920 46
2010-03-23 11:07 51°8.86 2°32.96 2.1 262 7.4 101920 44
2010-03-23 11:08 51°8.841 2°32.924 1.9 262 7.3 101920 45
2010-03-23 11:09 51°8.823 2°32.887 2.4 263 7.3 101920 43
2010-03-23 11:10 51°8.805 2°32.852 2.9 260 7.3 101920 43
2010-03-23 11:11 51°8.786 2°32.816 3.4 256 7.3 101920 42
2010-03-23 11:12 51°8.769 2°32.782 3.6 257 7.3 101920 43
2010-03-23 11:13 51°8.751 2°32.747 3.3 257 7.4 101920 43
2010-03-23 11:14 51°8.735 2°32.714 3.1 256 7.4 101920 43
2010-03-23 11:15 51°8.716 2°32.68 2.7 257 7.4 101910 46
2010-03-23 11:16 51°8.699 2°32.646 1.5 254 7.4 101920 44
2010-03-23 11:17 51°8.682 2°32.613 1.4 253 7.5 101910 43
2010-03-23 11:18 51°8.665 2°32.58 1.2 251 7.5 101910 44
2010-03-23 11:19 51°8.648 2°32.547 1 20 7.5 101910 44
2010-03-23 11:20 51°8.63 2°32.514 1.2 20 7.6 101910 44
2010-03-23 11:21 51°8.61 2°32.484 1.6 20 7.7 101910 45
2010-03-23 11:22 51°8.584 2°32.505 3.1 336 7.7 101910 43
2010-03-23 11:23 51°8.613 2°32.613 5.5 336 7.7 101900 43
2010-03-23 11:24 51°8.618 2°32.807 5.7 334 7.7 101900 43
2010-03-23 11:25 51°8.646 2°33.012 5.4 336 7.8 101900 46
2010-03-23 11:26 51°8.69 2°33.217 5.8 333 7.9 101900 46
2010-03-23 11:27 51°8.73 2°33.424 6.3 332 7.8 101900 43
2010-03-23 11:28 51°8.774 2°33.652 6.6 331 7.8 101900 45
2010-03-23 11:29 51°8.817 2°33.889 5.9 330 7.8 101900 45
2010-03-23 11:30 51°8.866 2°34.124 6.2 330 7.8 101900 43
2010-03-23 11:31 51°8.913 2°34.246 2.7 341 7.8 101910 46
2010-03-23 11:32 51°8.935 2°34.244 -999 354 7.8 101910 44
2010-03-23 11:33 51°8.94 2°34.214 0.1 8 7.8 101910 44
2010-03-23 11:34 51°8.941 2°34.177 -999 12 7.7 101910 45
2010-03-23 11:35 51°8.94 2°34.137 -999 17 7.6 101910 44
2010-03-23 11:36 51°8.939 2°34.096 -999 22 7.6 101910 45
2010-03-23 11:37 51°8.936 2°34.054 -999 17 7.6 101910 45
2010-03-23 11:38 51°8.933 2°34.013 -999 17 7.6 101900 45
2010-03-23 11:39 51°8.931 2°33.974 -999 17 7.7 101900 45
2010-03-23 11:40 51°8.927 2°33.935 -999 23 7.7 101900 45
2010-03-23 11:41 51°8.923 2°33.896 -999 18 7.7 101900 45
2010-03-23 11:42 51°8.918 2°33.858 -999 11 7.8 101900 45
2010-03-23 11:43 51°8.914 2°33.819 -999 11 7.8 101910 44
2010-03-23 11:44 51°8.908 2°33.781 -999 10 7.9 101900 45
2010-03-23 11:45 51°8.902 2°33.743 -999 17 7.8 101900 45
2010-03-23 11:46 51°8.895 2°33.704 -999 15 7.8 101900 45
2010-03-23 11:47 51°8.891 2°33.663 1.1 12 7.8 101900 44
2010-03-23 11:48 51°8.884 2°33.624 2.7 12 7.7 101900 46
2010-03-23 11:49 51°8.876 2°33.584 2.1 15 7.6 101890 46
2010-03-23 11:50 51°8.866 2°33.545 3.2 16 7.6 101890 44
2010-03-23 11:51 51°8.858 2°33.505 2.9 17 7.6 101890 43
2010-03-23 11:52 51°8.849 2°33.466 2.7 20 7.6 101890 44
2010-03-23 11:53 51°8.839 2°33.427 2.8 22 7.6 101890 46
2010-03-23 11:54 51°8.83 2°33.389 2.1 31 7.7 101880 43
2010-03-23 11:55 51°8.82 2°33.35 -999 21 7.8 101880 45
2010-03-23 11:56 51°8.811 2°33.313 -999 30 7.8 101880 45
2010-03-23 11:57 51°8.802 2°33.276 -999 44 7.9 101880 45
2010-03-23 11:58 51°8.793 2°33.239 -999 42 8.1 101880 45
2010-03-23 11:59 51°8.785 2°33.203 -999 24 8.4 101870 45
2010-03-23 12:00 51°8.776 2°33.167 -999 35 8.5 101870 45
2010-03-23 12:01 51°8.767 2°33.131 -999 45 8.7 101870 45
2010-03-23 12:02 51°8.759 2°33.096 -999 23 8.9 101860 45
2010-03-23 12:03 51°8.751 2°33.06 -999 23 9.1 101860 46
2010-03-23 12:04 51°8.742 2°33.025 -999 37 9.3 101860 45
2010-03-23 12:05 51°8.733 2°32.99 -999 34 9.4 101860 45
2010-03-23 12:06 51°8.723 2°32.955 -999 32 9.5 101860 45
2010-03-23 12:07 51°8.714 2°32.919 -999 29 9.5 101860 44
2010-03-23 12:08 51°8.703 2°32.884 -999 15 9.5 101850 44
2010-03-23 12:09 51°8.692 2°32.848 -999 23 9.4 101860 44
2010-03-23 12:10 51°8.682 2°32.813 -999 17 9.4 101850 44
2010-03-23 12:11 51°8.672 2°32.778 -999 21 9.4 101850 44
2010-03-23 12:12 51°8.661 2°32.743 -999 33 9.4 101850 44
2010-03-23 12:13 51°8.65 2°32.708 -999 33 9.4 101850 45
2010-03-23 12:14 51°8.638 2°32.673 -999 35 9.5 101850 45
2010-03-23 12:15 51°8.627 2°32.639 -999 23 9.5 101850 43
2010-03-23 12:16 51°8.616 2°32.604 -999 39 9.5 101850 44
2010-03-23 12:17 51°8.604 2°32.568 -999 35 9.4 101840 44
2010-03-23 12:18 51°8.592 2°32.534 -999 34 9.2 101840 44
2010-03-23 12:19 51°8.581 2°32.5 -999 33 9 101840 44
2010-03-23 12:20 51°8.568 2°32.465 -999 42 8.8 101840 44
2010-03-23 12:21 51°8.557 2°32.43 -999 24 8.7 101840 44
2010-03-23 12:22 51°8.557 2°32.384 -999 20 8.5 101840 44
2010-03-23 12:23 51°8.603 2°32.366 3.7 340 8.4 101830 43
2010-03-23 12:24 51°8.687 2°32.493 5.4 335 8.6 101820 44
2010-03-23 12:25 51°8.696 2°32.713 6.3 344 8.8 101820 45
2010-03-23 12:26 51°8.691 2°32.946 5.2 345 9.1 101810 44
2010-03-23 12:27 51°8.687 2°33.181 5.9 349 9.6 101820 44
2010-03-23 12:28 51°8.683 2°33.417 5.3 347 9.8 101820 46
2010-03-23 12:29 51°8.677 2°33.655 5.7 348 10 101810 43
2010-03-23 12:30 51°8.671 2°33.893 5.2 349 10.1 101810 45
2010-03-23 12:31 51°8.665 2°34.13 5.5 349 10.2 101810 44
2010-03-23 12:32 51°8.684 2°34.359 5.8 355 10.3 101810 43
2010-03-23 12:33 51°8.713 2°34.584 5.7 354 10.3 101810 43
2010-03-23 12:34 51°8.742 2°34.809 5.3 357 10.3 101810 43
2010-03-23 12:35 51°8.75 2°35.037 7.3 352 10.3 101810 43
2010-03-23 12:36 51°8.717 2°35.255 5 4 10.4 101800 43
2010-03-23 12:37 51°8.767 2°35.308 1.7 25 10.6 101820 44
2010-03-23 12:38 51°8.817 2°35.267 2.3 21 10.9 101820 43
2010-03-23 12:39 51°8.889 2°35.216 -999 23 11 101810 42
2010-03-23 12:40 51°8.97 2°35.198 0.1 43 11.2 101810 43
2010-03-23 12:41 51°9.033 2°35.227 2.4 23 11.1 101810 41
2010-03-23 12:42 51°9.069 2°35.285 3.2 20 10.9 101810 42
2010-03-23 12:43 51°9.095 2°35.365 3.4 8 10.8 101810 42
2010-03-23 12:44 51°9.111 2°35.462 2.8 10 10.7 101810 44
2010-03-23 12:45 51°9.139 2°35.553 2.9 13 10.7 101810 42
2010-03-23 12:46 51°9.163 2°35.647 3.6 2 10.6 101810 43
2010-03-23 12:47 51°9.163 2°35.752 4.3 3 10.4 101800 42
2010-03-23 12:48 51°9.157 2°35.858 4.8 2 10.4 101800 44
2010-03-23 12:49 51°9.156 2°35.964 5.2 6 10.4 101800 44
2010-03-23 12:50 51°9.159 2°36.067 5.2 7 10.4 101800 43
2010-03-23 12:51 51°9.147 2°36.163 4.9 5 10.5 101800 42
2010-03-23 12:52 51°9.122 2°36.255 4.6 2 10.6 101790 44
2010-03-23 12:53 51°9.093 2°36.348 4.8 355 10.8 101780 44
2010-03-23 12:54 51°9.066 2°36.441 5.1 359 10.9 101780 43
2010-03-23 12:55 51°9.047 2°36.537 4.7 358 11 101780 41
2010-03-23 12:56 51°9.032 2°36.635 4.7 1 11 101780 43
2010-03-23 12:57 51°9.027 2°36.734 4.2 6 10.9 101780 43
2010-03-23 12:58 51°9.043 2°36.828 3.8 9 10.9 101780 42
2010-03-23 12:59 51°9.076 2°36.914 2 20 10.9 101780 43
2010-03-23 13:00 51°9.121 2°36.987 2.4 21 11 101780 44
2010-03-23 13:01 51°9.169 2°37.06 2.5 17 11.1 101780 42
2010-03-23 13:02 51°9.215 2°37.135 3.4 23 11.2 101780 42
2010-03-23 13:03 51°9.257 2°37.211 2.8 22 11.1 101780 41
2010-03-23 13:04 51°9.301 2°37.29 3 22 11 101770 43
2010-03-23 13:05 51°9.345 2°37.368 3.2 19 10.9 101770 42
2010-03-23 13:06 51°9.388 2°37.447 2.8 26 10.9 101770 43
2010-03-23 13:07 51°9.43 2°37.527 2.9 22 11 101770 42
2010-03-23 13:08 51°9.473 2°37.606 4.3 20 11.1 101760 42
2010-03-23 13:09 51°9.514 2°37.683 4 24 11 101770 42
2010-03-23 13:10 51°9.555 2°37.762 4.2 23 11 101760 42
2010-03-23 13:11 51°9.587 2°37.849 4.8 19 11 101770 43
2010-03-23 13:12 51°9.614 2°37.939 4.1 18 11 101760 44
2010-03-23 13:13 51°9.641 2°38.028 4.3 17 11.1 101760 42
2010-03-23 13:14 51°9.669 2°38.118 4 20 11.1 101760 42
2010-03-23 13:15 51°9.699 2°38.207 3.2 18 11.3 101760 42
2010-03-23 13:16 51°9.728 2°38.295 3.7 11 11.2 101760 44
2010-03-23 13:17 51°9.757 2°38.383 3.1 20 11.2 101760 44
2010-03-23 13:18 51°9.785 2°38.471 3 22 11.3 101760 43
2010-03-23 13:19 51°9.813 2°38.56 3.9 21 11.2 101760 41
2010-03-23 13:20 51°9.84 2°38.649 3.7 19 11.3 101760 44
2010-03-23 13:21 51°9.869 2°38.739 3.8 16 11.4 101750 43
2010-03-23 13:22 51°9.897 2°38.829 3.3 21 11.5 101750 44
2010-03-23 13:23 51°9.931 2°38.912 3 18 11.5 101750 43
2010-03-23 13:24 51°9.938 2°39.009 4.6 4 11.4 101750 43
2010-03-23 13:25 51°9.91 2°39.102 6.4 1 11.1 101750 42
2010-03-23 13:26 51°9.86 2°39.176 5.5 349 11.2 101740 43
2010-03-23 13:27 51°9.803 2°39.215 5.8 345 11.3 101740 41
2010-03-23 13:28 51°9.743 2°39.217 6.9 331 11.5 101730 42
2010-03-23 13:29 51°9.691 2°39.182 5 323 11.5 101730 43
2010-03-23 13:30 51°9.656 2°39.133 6 22 11.5 101730 43
2010-03-23 13:31 51°9.636 2°39.082 5.1 24 11.7 101730 43
2010-03-23 13:32 51°9.621 2°39.035 5.2 27 11.9 101730 41
2010-03-23 13:33 51°9.61 2°38.994 5.4 238 12.1 101720 42
2010-03-23 13:34 51°9.602 2°38.957 5.8 21 12.1 101730 41
2010-03-23 13:35 51°9.573 2°38.852 6.7 20 12.2 101720 41
2010-03-23 13:36 51°9.553 2°38.666 5.5 249 12.2 101720 43
2010-03-23 13:37 51°9.573 2°38.549 2.7 263 12.1 101730 41
2010-03-23 13:38 51°9.599 2°38.469 3.1 268 11.9 101730 42
2010-03-23 13:39 51°9.623 2°38.394 2.5 261 11.8 101730 42
2010-03-23 13:40 51°9.654 2°38.269 3.7 252 11.8 101730 42
2010-03-23 13:41 51°9.676 2°38.131 4.3 19 11.7 101720 43
2010-03-23 13:42 51°9.676 2°38.027 4.3 244 11.7 101720 44
2010-03-23 13:43 51°9.669 2°37.947 4.6 249 11.7 101720 40
2010-03-23 13:44 51°9.661 2°37.882 4.8 247 11.7 101720 41
2010-03-23 13:45 51°9.654 2°37.828 4.8 28 11.7 101720 43
2010-03-23 13:46 51°9.647 2°37.782 4.3 240 11.7 101710 43
2010-03-23 13:47 51°9.642 2°37.743 4.9 20 11.8 101710 43
2010-03-23 13:48 51°9.639 2°37.709 4.8 253 12 101700 42
2010-03-23 13:49 51°9.635 2°37.677 4.5 252 12 101710 43
2010-03-23 13:50 51°9.631 2°37.647 3.5 251 12 101700 43
2010-03-23 13:51 51°9.627 2°37.619 4.7 253 11.9 101700 40
2010-03-23 13:52 51°9.623 2°37.591 3.8 251 11.8 101700 43
2010-03-23 13:53 51°9.62 2°37.566 4.6 250 11.7 101700 43
2010-03-23 13:54 51°9.615 2°37.521 3.9 252 11.7 101700 42
2010-03-23 13:55 51°9.655 2°37.431 0.1 26 11.6 101700 43
2010-03-23 13:56 51°9.736 2°37.543 3.6 5 11.4 101700 41
2010-03-23 13:57 51°9.804 2°37.803 5.6 353 11.2 101700 44
2010-03-23 13:58 51°9.875 2°38.125 6.2 353 11.1 101680 42
2010-03-23 13:59 51°9.935 2°38.456 6 352 11.2 101680 42
2010-03-23 14:00 51°9.996 2°38.785 6.6 355 11.1 101680 42
2010-03-23 14:01 51°10.07 2°39.107 6.7 355 11.2 101680 42
2010-03-23 14:02 51°10.147 2°39.428 6.6 352 11.2 101680 43
2010-03-23 14:03 51°10.224 2°39.752 6.5 355 11.2 101680 43
2010-03-23 14:04 51°10.302 2°40.074 6.1 354 11.4 101680 43
2010-03-23 14:05 51°10.378 2°40.398 6.1 354 11.4 101680 42
2010-03-23 14:06 51°10.454 2°40.721 6.5 359 11.3 101680 43
2010-03-23 14:07 51°10.531 2°41.045 6.6 357 11.3 101680 41
2010-03-23 14:08 51°10.609 2°41.368 6.2 -999 11.2 101690 43
2010-03-23 14:09 51°10.685 2°41.692 5.5 358 11.3 101690 44
2010-03-23 14:10 51°10.762 2°42.017 5.3 351 11.3 101680 41
2010-03-23 14:11 51°10.842 2°42.338 5.2 356 11.2 101680 42
2010-03-23 14:12 51°10.929 2°42.653 6.1 353 11.4 101680 42
2010-03-23 14:13 51°11.012 2°42.97 5.6 357 11.4 101670 43
2010-03-23 14:14 51°11.096 2°43.288 5.6 359 11.4 101680 43
2010-03-23 14:15 51°11.18 2°43.605 5.4 353 11.4 101670 41
2010-03-23 14:16 51°11.257 2°43.928 5.2 357 11.4 101670 43
2010-03-23 14:17 51°11.334 2°44.251 5.7 355 11.4 101670 43
2010-03-23 14:18 51°11.42 2°44.567 5.9 358 11.3 101660 42
2010-03-23 14:19 51°11.508 2°44.883 6.2 358 11.3 101660 42
2010-03-23 14:20 51°11.597 2°45.198 6.2 360 11.4 101660 42
2010-03-23 14:21 51°11.684 2°45.513 5.8 1 11.4 101660 43
2010-03-23 14:22 51°11.771 2°45.831 5.7 354 11.6 101660 43
2010-03-23 14:23 51°11.858 2°46.151 5.1 358 11.9 101660 42
2010-03-23 14:24 51°11.946 2°46.472 5.3 355 11.8 101660 41
2010-03-23 14:25 51°12.035 2°46.792 5.1 353 11.9 101660 41
2010-03-23 14:26 51°12.123 2°47.112 4.9 353 11.9 101660 42
2010-03-23 14:27 51°12.212 2°47.435 5.5 353 12 101660 42
2010-03-23 14:28 51°12.3 2°47.756 6.1 353 12 101650 41
2010-03-23 14:29 51°12.39 2°48.076 5.9 350 12.3 101650 43
2010-03-23 14:30 51°12.479 2°48.396 5.7 348 12.3 101650 41
2010-03-23 14:31 51°12.569 2°48.716 6 350 12.2 101650 40
2010-03-23 14:32 51°12.661 2°49.037 5.3 351 12.3 101650 43
2010-03-23 14:33 51°12.76 2°49.352 4.9 355 12.3 101650 41
2010-03-23 14:34 51°12.867 2°49.662 4.8 356 12.2 101650 41
2010-03-23 14:35 51°12.972 2°49.975 5.4 356 12.2 101650 42
2010-03-23 14:36 51°13.081 2°50.262 4.5 10 12.2 101650 42
2010-03-23 14:37 51°13.183 2°50.471 4.3 17 12.2 101650 43
2010-03-23 14:38 51°13.281 2°50.67 3.1 8 12.2 101650 43
2010-03-23 14:39 51°13.391 2°50.847 1.3 13 12.2 101660 40
2010-03-23 14:40 51°13.439 2°50.99 4 9 12 101650 40
2010-03-23 14:41 51°13.435 2°51.032 3.5 9 12.2 101650 42
2010-03-23 14:42 51°13.439 2°51.034 3.5 353 12.4 101650 41
2010-03-23 14:43 51°13.443 2°51.036 3 3 12.4 101640 42
2010-03-23 14:44 51°13.453 2°51.142 4.7 358 12.4 101630 42
2010-03-23 14:45 51°13.554 2°51.395 5.4 350 12.4 101630 40
2010-03-23 14:46 51°13.674 2°51.702 5.2 348 12.6 101630 42
2010-03-23 14:47 51°13.791 2°52.019 4.9 349 12.7 101630 41
2010-03-23 14:48 51°13.907 2°52.338 4.1 348 12.7 101630 40
2010-03-23 14:49 51°14.024 2°52.656 4.3 348 12.7 101630 41
2010-03-23 14:50 51°14.141 2°52.956 3.3 349 12.8 101630 41
2010-03-23 14:51 51°14.255 2°53.25 3.3 344 12.6 101630 40
2010-03-23 14:52 51°14.365 2°53.547 2.7 359 12.5 101630 41
2010-03-23 14:53 51°14.469 2°53.838 4.6 356 12.4 101630 43
2010-03-23 14:54 51°14.534 2°54.131 5.7 355 12.5 101620 40
2010-03-23 14:55 51°14.58 2°54.378 4.4 1 12.5 101620 39
2010-03-23 14:56 51°14.615 2°54.582 4.8 356 12.6 101620 40
2010-03-23 14:57 51°14.628 2°54.781 5.3 354 12.7 101620 41
2010-03-23 14:58 51°14.562 2°54.973 5.7 343 12.8 101610 40
2010-03-23 14:59 51°14.432 2°55.123 4.9 335 12.9 101610 41
2010-03-23 15:00 51°14.293 2°55.269 7.5 336 13 101610 42
2010-03-23 15:01 51°14.147 2°55.394 6.6 331 13.1 101610 41
2010-03-23 15:02 51°14.01 2°55.5 6.5 336 13.2 101610 41
2010-03-23 15:03 51°13.91 2°55.574 6 331 13.3 101610 40
2010-03-23 15:04 51°13.816 2°55.645 5.8 337 13.3 101610 41
2010-03-23 15:05 51°13.737 2°55.748 4.8 352 13.4 101610 41
2010-03-23 15:06 51°13.692 2°55.85 2.9 343 13.4 101610 42
2010-03-23 15:07 51°13.668 2°55.94 3.2 348 13.4 101610 41